Arhangel'Sk, Russia

12:14 AM MSK on August 31, 2014 (GMT +0400)
Talagi | Change Station
CLOSE
Current Station
Airport
Location: Arhangel'sk,
Elevation: 59 ft
Nearby Weather Stations

Elev 59 ft 64.60 °N, 40.72 °E | Updated 14 minutes ago

Overcast
Overcast
48 °F
Feels Like 48 °F
N
9
Wind Variable Wind from North
Gusts 16 mph

Today
High -- | Low -- °F
--% Chance of Precip.
Yesterday
High -- | Low -- °F
Precip. -- in
5:53 AM 8:39 PM
Waxing Crescent, 24% visible
Pressure 30.04 in
Visibility 6.2 miles
Clouds Overcast 1600 ft
Dew Point 45 °F
Humidity 87%
Rainfall 0.00 in
Snow Depth Not available.
UV 0 out of 12
Pollen Not available.
Air Quality Not available.
Flu Activity Not available.
METAR ULAA 302000Z 01004G07MPS 9999 OVC016 09/07 Q1017 NOSIG RMK QFE761/1015 SC070

More Conditions Fewer Conditions

Pressure 30.04 in
Visibility 6.2 miles
Clouds Overcast 1600 ft
Dew Point 45 °F
Humidity 87%
Rainfall 0.00 in
Snow Depth Not available.
UV 0 out of 12
Pollen Not available.
Air Quality Not available.
Flu Activity Not available.
METAR ULAA 302000Z 01004G07MPS 9999 OVC016 09/07 Q1017 NOSIG RMK QFE761/1015 SC070

More Conditions Fewer Conditions

10-Day Weather Forecast

Almanac

Astronomy

Aug. 31, 2014 Rise Set
Actual Time 5:53 AM MSK 8:39 PM MSK
Civil Twilight 4:58 AM MSK 9:33 PM MSK
Nautical Twilight 3:39 AM MSK 10:51 PM MSK
Astronomical Twilight 1:50 AM MSK 12:44 AM MSK
Moon 1:29 PM MSK (8/31) 9:24 PM MSK (8/31)
Length of Visible Light 16h 35m
Length of Day
14h 45m
Tomorrow will be 6m 39s shorter.
Waxing Crescent, 24% of the Moon is Illuminated
Aug 30
Waxing Crescent
Sep 2
First Quarter
Sep 8
Full
Sep 15
Last Quarter
Sep 24
New

Yesterday's Extremes

Country Highs Country Lows

Community

WunderPhotos

Upload Photos

1,748,622 photos uploaded!

WunderBlogs® & News

Nearby

Snow Depth

Not available.

Earthquake Activity

City Distance Mag. Time & Date
No recent earthquake activity has been reported nearby.
Minimum magnitude displayed is 2.5.

Coastal Water Temperatures

Place Temperature
No Stations Reporting

Nearby Weather Stations